createdAt,value
2023-12-03T00:02:21.888Z,9.75
2023-12-03T00:04:48.581Z,9.80
2023-12-03T00:07:15.245Z,9.73
2023-12-03T00:09:42.061Z,9.35
2023-12-03T00:12:08.582Z,9.07
2023-12-03T00:14:38.211Z,8.93
2023-12-03T00:17:04.965Z,8.70
2023-12-03T00:19:31.517Z,9.27
2023-12-03T00:21:57.919Z,9.52
2023-12-03T00:24:24.396Z,8.90
2023-12-03T00:26:50.933Z,8.50
2023-12-03T00:29:17.320Z,9.05
2023-12-03T00:31:43.751Z,8.80
2023-12-03T00:34:10.243Z,8.88
2023-12-03T00:36:36.917Z,9.32
2023-12-03T00:39:04.434Z,9.50
2023-12-03T00:41:30.790Z,8.40
2023-12-03T00:43:57.181Z,8.73
2023-12-03T00:46:23.642Z,8.82
2023-12-03T00:48:50.222Z,8.80
2023-12-03T00:51:16.698Z,8.13
2023-12-03T00:53:43.393Z,8.50
2023-12-03T00:56:10.215Z,8.50
2023-12-03T00:58:36.710Z,9.10
2023-12-03T01:01:03.457Z,8.82
2023-12-03T01:03:29.914Z,8.43
2023-12-03T01:05:56.427Z,8.70
2023-12-03T01:08:22.827Z,8.57
2023-12-03T01:10:49.267Z,8.32
2023-12-03T01:13:15.749Z,8.25
2023-12-03T01:15:42.153Z,8.50
2023-12-03T01:18:11.301Z,8.15
2023-12-03T01:20:38.171Z,8.25
2023-12-03T01:23:04.554Z,8.93
2023-12-03T01:25:31.976Z,9.32
2023-12-03T01:27:58.483Z,8.82
2023-12-03T01:30:24.883Z,8.95
2023-12-03T01:32:52.186Z,8.80
2023-12-03T01:35:18.784Z,8.90
2023-12-03T01:37:45.218Z,8.60
2023-12-03T01:40:11.739Z,8.65
2023-12-03T01:42:38.155Z,8.13
2023-12-03T01:45:05.077Z,8.00
2023-12-03T01:47:31.518Z,7.75
2023-12-03T01:50:04.654Z,7.65
2023-12-03T01:52:31.082Z,8.05
2023-12-03T01:54:58.589Z,7.85
2023-12-03T01:57:24.991Z,8.25
2023-12-03T01:59:51.363Z,8.07
2023-12-03T02:02:17.748Z,8.27
2023-12-03T02:04:44.248Z,8.32
2023-12-03T02:07:11.016Z,8.20
2023-12-03T02:09:38.032Z,8.48
2023-12-03T02:12:04.545Z,8.35
2023-12-03T02:14:30.949Z,8.50
2023-12-03T02:16:57.328Z,7.82
2023-12-03T02:19:23.740Z,8.05
2023-12-03T02:21:50.202Z,7.80
2023-12-03T02:24:16.616Z,8.18
2023-12-03T02:26:43.052Z,8.07
2023-12-03T02:29:09.444Z,8.57
2023-12-03T02:31:35.813Z,7.75
2023-12-03T02:34:07.916Z,7.55
2023-12-03T02:36:34.596Z,8.27
2023-12-03T02:39:01.001Z,8.63
2023-12-03T02:41:27.532Z,8.60
2023-12-03T02:43:53.915Z,8.80
2023-12-03T02:46:20.358Z,8.15
2023-12-03T02:48:46.928Z,7.97
2023-12-03T02:51:13.437Z,8.13
2023-12-03T02:53:40.154Z,8.48
2023-12-03T02:56:07.169Z,7.63
2023-12-03T02:58:34.107Z,7.93
2023-12-03T03:01:00.598Z,7.25
2023-12-03T03:03:27.104Z,7.10
2023-12-03T03:05:53.633Z,7.43
2023-12-03T03:08:20.001Z,7.88
2023-12-03T03:10:46.389Z,7.82
2023-12-03T03:13:12.809Z,7.30
2023-12-03T03:15:39.262Z,7.35
2023-12-03T03:18:05.682Z,7.20
2023-12-03T03:20:32.260Z,7.30
2023-12-03T03:22:58.605Z,7.00
2023-12-03T03:25:25.013Z,6.75
2023-12-03T03:27:51.405Z,6.70
2023-12-03T03:30:17.873Z,6.57
2023-12-03T03:32:44.430Z,7.00
2023-12-03T03:35:10.892Z,7.10
2023-12-03T03:37:37.318Z,6.82
2023-12-03T03:40:03.945Z,7.25
2023-12-03T03:42:30.444Z,6.70
2023-12-03T03:44:56.888Z,7.13
2023-12-03T03:47:23.303Z,6.28
2023-12-03T03:49:49.680Z,7.85
2023-12-03T03:52:16.064Z,7.07
2023-12-03T03:54:42.571Z,7.50
2023-12-03T03:57:09.052Z,7.05
2023-12-03T03:59:35.684Z,7.85
2023-12-03T04:02:02.101Z,7.35
2023-12-03T04:04:28.594Z,6.97
2023-12-03T04:06:55.115Z,7.05
2023-12-03T04:09:21.637Z,7.72
2023-12-03T04:11:48.070Z,7.75
2023-12-03T04:14:17.987Z,6.63
2023-12-03T04:16:44.557Z,8.20
2023-12-03T04:19:11.956Z,7.03
2023-12-03T04:21:39.758Z,7.45
2023-12-03T04:24:06.405Z,7.63
2023-12-03T04:26:32.829Z,7.05
2023-12-03T04:28:59.184Z,7.45
2023-12-03T04:31:29.179Z,7.65
2023-12-03T04:33:56.621Z,7.20
2023-12-03T04:36:24.475Z,7.15
2023-12-03T04:38:52.007Z,7.03
2023-12-03T04:41:18.482Z,7.18
2023-12-03T04:43:44.891Z,7.50
2023-12-03T04:46:11.421Z,7.10
2023-12-03T04:48:39.660Z,7.32
2023-12-03T04:51:06.338Z,7.10
2023-12-03T04:53:32.788Z,7.07
2023-12-03T04:55:59.304Z,7.05
2023-12-03T04:58:26.737Z,7.03
2023-12-03T05:00:54.168Z,7.10
2023-12-03T05:03:20.776Z,7.85
2023-12-03T05:05:47.347Z,7.40
2023-12-03T05:08:13.793Z,7.93
2023-12-03T05:10:40.195Z,6.78
2023-12-03T05:13:06.577Z,7.47
2023-12-03T05:15:33.003Z,7.15
2023-12-03T05:17:59.512Z,8.25
2023-12-03T05:20:26.004Z,7.07
2023-12-03T05:22:54.515Z,7.68
2023-12-03T05:25:21.017Z,7.95
2023-12-03T05:27:47.537Z,7.07
2023-12-03T05:30:15.177Z,6.65
2023-12-03T05:32:42.167Z,7.15
2023-12-03T05:35:08.787Z,7.40
2023-12-03T05:37:35.256Z,7.30
2023-12-03T05:40:01.741Z,7.20
2023-12-03T05:42:29.509Z,7.47
2023-12-03T05:44:56.009Z,7.45
2023-12-03T05:47:22.392Z,7.05
2023-12-03T05:49:48.922Z,7.32
2023-12-03T05:52:15.777Z,6.78
2023-12-03T05:54:45.308Z,7.35
2023-12-03T05:57:12.173Z,7.05
2023-12-03T05:59:38.591Z,6.95
2023-12-03T06:02:05.928Z,7.88
2023-12-03T06:04:32.764Z,7.00
2023-12-03T06:06:59.279Z,7.20
2023-12-03T06:09:25.747Z,6.25
2023-12-03T06:11:52.131Z,6.78
2023-12-03T06:14:18.559Z,6.93
2023-12-03T06:16:44.942Z,6.80
2023-12-03T06:19:11.441Z,6.55
2023-12-03T06:21:37.988Z,6.50
2023-12-03T06:24:04.569Z,6.93
2023-12-03T06:26:31.245Z,6.07
2023-12-03T06:28:57.634Z,6.30
2023-12-03T06:31:24.144Z,5.85
2023-12-03T06:33:50.631Z,6.40
2023-12-03T06:36:17.166Z,6.15
2023-12-03T06:38:43.634Z,6.07
2023-12-03T06:41:10.022Z,6.30
2023-12-03T06:43:36.532Z,6.05
2023-12-03T06:46:03.027Z,6.75
2023-12-03T06:48:29.496Z,5.65
2023-12-03T06:50:56.224Z,5.90
2023-12-03T06:53:22.660Z,6.07
2023-12-03T06:55:49.026Z,6.63
2023-12-03T06:58:15.406Z,6.00
2023-12-03T07:00:42.009Z,6.32
2023-12-03T07:03:08.695Z,6.32
2023-12-03T07:05:35.049Z,6.53
2023-12-03T07:08:01.432Z,6.88
2023-12-03T07:10:28.008Z,7.05
2023-12-03T07:12:54.461Z,7.32
2023-12-03T07:15:20.905Z,7.55
2023-12-03T07:17:47.312Z,6.97
2023-12-03T07:20:13.836Z,7.00
2023-12-03T07:22:40.798Z,6.70
2023-12-03T07:25:07.437Z,6.88
2023-12-03T07:27:33.812Z,7.38
2023-12-03T07:30:00.333Z,8.40
2023-12-03T07:32:26.906Z,8.77
2023-12-03T07:34:53.712Z,9.20
2023-12-03T07:37:20.155Z,8.98
2023-12-03T07:39:46.541Z,8.70
2023-12-03T07:42:12.976Z,9.20
2023-12-03T07:44:39.414Z,9.32
2023-12-03T07:47:05.844Z,8.80
2023-12-03T07:49:32.258Z,9.07
2023-12-03T07:51:58.780Z,8.75
2023-12-03T07:54:25.228Z,8.68
2023-12-03T07:56:51.630Z,8.60
2023-12-03T07:59:18.020Z,8.60
2023-12-03T08:01:44.444Z,8.73
2023-12-03T08:04:10.927Z,8.82
2023-12-03T08:06:37.490Z,9.65
2023-12-03T08:09:03.968Z,9.27
2023-12-03T08:11:30.338Z,9.70
2023-12-03T08:13:56.887Z,9.48
2023-12-03T08:16:23.418Z,10.07
2023-12-03T08:18:50.145Z,9.52
2023-12-03T08:21:16.679Z,10.05
2023-12-03T08:23:43.134Z,8.80
2023-12-03T08:26:09.538Z,7.88
2023-12-03T08:28:35.977Z,8.20
2023-12-03T08:31:02.419Z,7.60
2023-12-03T08:33:28.881Z,8.07
2023-12-03T08:35:55.324Z,7.35
2023-12-03T08:38:21.722Z,7.82
2023-12-03T08:40:48.954Z,7.38
2023-12-03T08:43:16.846Z,7.35
2023-12-03T08:45:43.882Z,7.10
2023-12-03T08:48:10.343Z,8.10
2023-12-03T08:50:36.706Z,8.75
2023-12-03T08:53:04.514Z,8.57
2023-12-03T08:55:32.981Z,10.95
2023-12-03T08:57:59.653Z,10.75
2023-12-03T09:00:26.070Z,8.63
2023-12-03T09:02:52.638Z,8.25
2023-12-03T09:05:19.186Z,8.55
2023-12-03T09:07:45.694Z,7.68
2023-12-03T09:10:12.175Z,8.13
2023-12-03T09:12:38.605Z,7.10
2023-12-03T09:15:05.199Z,7.63
2023-12-03T09:17:33.312Z,7.15
2023-12-03T09:19:59.785Z,6.75
2023-12-03T09:22:26.175Z,6.78
2023-12-03T09:24:52.616Z,6.38
2023-12-03T09:27:19.063Z,6.78
2023-12-03T09:29:45.544Z,7.57
2023-12-03T09:32:11.905Z,7.15
2023-12-03T09:34:38.290Z,7.18
2023-12-03T09:37:04.708Z,6.80
2023-12-03T09:39:31.122Z,7.00
2023-12-03T09:42:01.038Z,7.68
2023-12-03T09:44:49.355Z,7.78
2023-12-03T09:47:18.776Z,6.97
2023-12-03T09:49:48.262Z,7.67
2023-12-03T09:52:15.399Z,7.07
2023-12-03T09:54:43.908Z,7.80
2023-12-03T09:57:10.534Z,7.43
2023-12-03T09:59:38.813Z,6.93
2023-12-03T10:02:05.513Z,7.47
2023-12-03T10:04:32.061Z,7.80
2023-12-03T10:06:59.274Z,7.22
2023-12-03T10:09:26.306Z,6.93
2023-12-03T10:11:56.719Z,7.22
2023-12-03T10:16:50.005Z,8.90
2023-12-03T10:19:29.277Z,9.23
2023-12-03T10:21:56.822Z,8.37
2023-12-03T10:24:23.397Z,7.68
2023-12-03T10:26:57.006Z,8.52
2023-12-03T10:29:27.696Z,7.80
2023-12-03T10:31:54.371Z,8.55
2023-12-03T10:34:25.310Z,8.75
2023-12-03T10:36:51.989Z,8.88
2023-12-03T10:39:19.122Z,8.73
2023-12-03T10:41:47.254Z,9.20
2023-12-03T10:44:18.148Z,8.38
2023-12-03T10:46:45.439Z,8.32
2023-12-03T10:49:12.596Z,8.75
2023-12-03T10:51:41.722Z,9.63
2023-12-03T10:54:08.360Z,9.02
2023-12-03T10:56:35.225Z,9.35
2023-12-03T10:59:03.625Z,9.73
2023-12-03T11:01:31.096Z,8.90
2023-12-03T11:04:04.315Z,8.57
2023-12-03T11:06:34.345Z,8.70
2023-12-03T11:09:01.306Z,9.45
2023-12-03T11:11:27.854Z,8.57
2023-12-03T11:13:56.178Z,9.10
2023-12-03T11:16:23.050Z,8.40
2023-12-03T11:18:58.142Z,9.20
2023-12-03T11:21:34.185Z,8.77
2023-12-03T11:24:10.874Z,10.13
2023-12-03T11:26:37.288Z,9.32
2023-12-03T11:29:03.829Z,9.30
2023-12-03T11:31:30.239Z,9.98
2023-12-03T11:33:58.035Z,9.50
2023-12-03T11:36:43.883Z,10.52
2023-12-03T11:39:10.260Z,10.02
2023-12-03T11:41:37.669Z,10.18
2023-12-03T11:44:23.387Z,10.68
2023-12-03T11:46:51.422Z,9.93
2023-12-03T11:49:18.822Z,10.38
2023-12-03T11:51:46.193Z,12.40
2023-12-03T11:54:15.536Z,11.93
2023-12-03T11:56:42.100Z,10.32
2023-12-03T11:59:08.448Z,13.32
2023-12-03T12:01:39.240Z,11.65
2023-12-03T12:04:05.759Z,11.93
2023-12-03T12:06:34.294Z,11.32
2023-12-03T12:09:00.817Z,11.27
2023-12-03T12:11:27.431Z,11.07
2023-12-03T12:13:54.038Z,11.05
2023-12-03T12:16:20.442Z,11.95
2023-12-03T12:18:47.372Z,11.63
2023-12-03T12:21:15.576Z,11.82
2023-12-03T12:23:44.351Z,11.90
2023-12-03T12:26:10.959Z,12.93
2023-12-03T12:28:37.426Z,12.02
2023-12-03T12:31:04.041Z,12.75
2023-12-03T12:33:30.641Z,13.20
2023-12-03T12:36:00.751Z,13.90
2023-12-03T12:38:27.152Z,13.10
2023-12-03T12:40:54.307Z,13.77
2023-12-03T12:43:24.496Z,12.90
2023-12-03T12:48:28.492Z,12.45
2023-12-03T12:50:55.860Z,14.68
2023-12-03T12:53:22.330Z,13.55
2023-12-03T12:55:48.797Z,14.20
2023-12-03T12:58:15.218Z,14.93
2023-12-03T13:00:41.633Z,14.50
2023-12-03T13:03:08.126Z,15.25
2023-12-03T13:05:35.638Z,16.17
2023-12-03T13:08:02.082Z,15.25
2023-12-03T13:10:28.542Z,15.50
2023-12-03T13:12:55.096Z,14.70
2023-12-03T13:15:21.611Z,16.05
2023-12-03T13:18:05.881Z,16.25
2023-12-03T13:20:39.246Z,19.58
2023-12-03T13:23:08.484Z,18.67
2023-12-03T13:25:35.708Z,19.50
2023-12-03T13:28:02.124Z,20.65
2023-12-03T13:30:28.507Z,20.85
2023-12-03T13:32:56.493Z,19.98
2023-12-03T13:35:22.939Z,22.27
2023-12-03T13:37:49.424Z,20.67
2023-12-03T13:40:15.797Z,21.77
2023-12-03T13:42:42.331Z,21.70
2023-12-03T13:45:08.879Z,23.40
2023-12-03T13:47:35.547Z,21.08
2023-12-03T13:50:02.355Z,22.90
2023-12-03T13:52:28.952Z,21.60
2023-12-03T13:54:57.005Z,20.52
2023-12-03T13:57:23.538Z,19.98
2023-12-03T13:59:50.770Z,19.85
2023-12-03T14:02:27.793Z,20.52
2023-12-03T14:05:12.120Z,19.90
2023-12-03T14:07:46.973Z,18.40
2023-12-03T14:10:13.376Z,20.20
2023-12-03T14:12:40.006Z,20.58
2023-12-03T14:15:07.612Z,20.98
2023-12-03T14:17:34.749Z,19.60
2023-12-03T14:20:01.182Z,19.27
2023-12-03T14:22:27.598Z,19.48
2023-12-03T14:24:54.008Z,20.25
2023-12-03T14:27:20.479Z,20.05
2023-12-03T14:29:46.854Z,20.98
2023-12-03T14:32:13.266Z,19.80
2023-12-03T14:34:39.721Z,19.23
2023-12-03T14:37:06.752Z,18.42
2023-12-03T14:39:33.220Z,19.15
2023-12-03T14:41:59.715Z,20.65
2023-12-03T14:44:26.082Z,19.85
2023-12-03T14:46:53.708Z,18.50
2023-12-03T14:49:20.250Z,19.88
2023-12-03T14:51:46.728Z,19.75
2023-12-03T14:54:13.271Z,22.00
2023-12-03T14:56:40.727Z,23.02
2023-12-03T14:59:07.583Z,27.15
2023-12-03T15:01:34.716Z,23.95
2023-12-03T15:04:01.708Z,26.48
2023-12-03T15:06:30.290Z,26.60
2023-12-03T15:08:57.576Z,33.10
2023-12-03T15:11:23.991Z,30.55
2023-12-03T15:13:51.028Z,31.80
2023-12-03T15:16:18.048Z,31.73
2023-12-03T15:18:45.557Z,30.65
2023-12-03T15:21:12.501Z,30.63
2023-12-03T15:23:39.781Z,29.17
2023-12-03T15:26:06.876Z,39.28
2023-12-03T15:28:33.554Z,32.63
2023-12-03T15:31:00.108Z,33.30
2023-12-03T15:33:26.592Z,33.55
2023-12-03T15:35:53.621Z,34.88
2023-12-03T15:38:20.017Z,29.75
2023-12-03T15:40:46.389Z,44.63
2023-12-03T15:43:13.320Z,43.70
2023-12-03T15:45:42.064Z,37.70
2023-12-03T15:48:09.100Z,36.33
2023-12-03T15:50:35.658Z,34.65
2023-12-03T15:53:02.209Z,34.75
2023-12-03T15:55:28.582Z,37.22
2023-12-03T15:57:55.137Z,35.70
2023-12-03T16:00:21.799Z,40.83
2023-12-03T16:02:48.231Z,40.03
2023-12-03T16:05:14.891Z,41.03
2023-12-03T16:07:43.362Z,43.50
2023-12-03T16:10:10.052Z,39.75
2023-12-03T16:12:36.621Z,42.97
2023-12-03T16:15:04.464Z,38.80
2023-12-03T16:17:34.960Z,36.58
2023-12-03T16:20:02.176Z,38.28
2023-12-03T16:22:29.766Z,41.58
2023-12-03T16:24:56.184Z,38.55
2023-12-03T16:27:22.625Z,39.38
2023-12-03T16:29:49.440Z,37.08
2023-12-03T16:32:15.815Z,42.33
2023-12-03T16:34:45.709Z,36.60
2023-12-03T16:37:12.163Z,37.38
2023-12-03T16:39:38.547Z,41.65
2023-12-03T16:42:05.449Z,39.80
2023-12-03T16:44:31.841Z,38.92
2023-12-03T16:46:58.216Z,40.33
2023-12-03T16:49:24.760Z,40.00
2023-12-03T16:51:51.273Z,41.08
2023-12-03T16:54:19.139Z,42.25
2023-12-03T16:56:45.750Z,39.30
2023-12-03T16:59:12.211Z,36.85
2023-12-03T17:01:38.564Z,42.97
2023-12-03T17:04:05.114Z,37.85
2023-12-03T17:06:31.594Z,42.15
2023-12-03T17:08:58.004Z,41.88
2023-12-03T17:11:24.530Z,40.00
2023-12-03T17:13:50.935Z,35.97
2023-12-03T17:16:17.623Z,37.83
2023-12-03T17:18:45.806Z,35.97
2023-12-03T17:21:13.172Z,36.10
2023-12-03T17:23:39.521Z,31.10
2023-12-03T17:26:08.080Z,32.85
2023-12-03T17:28:35.011Z,35.58
2023-12-03T17:31:01.515Z,33.42
2023-12-03T17:33:30.959Z,35.40
2023-12-03T17:35:57.590Z,35.33
2023-12-03T17:38:24.144Z,32.35
2023-12-03T17:40:51.097Z,34.33
2023-12-03T17:43:17.465Z,34.60
2023-12-03T17:45:43.956Z,34.63
2023-12-03T17:48:12.251Z,33.75
2023-12-03T17:50:39.013Z,34.15
2023-12-03T17:53:05.401Z,33.47
2023-12-03T17:55:32.067Z,32.78
2023-12-03T17:57:58.439Z,32.17
2023-12-03T18:00:24.924Z,31.83
2023-12-03T18:02:51.582Z,31.70
2023-12-03T18:05:17.970Z,32.20
2023-12-03T18:07:45.338Z,32.05
2023-12-03T18:10:13.959Z,34.15
2023-12-03T18:12:40.392Z,31.02
2023-12-03T18:15:07.303Z,29.80
2023-12-03T18:17:34.007Z,29.98
2023-12-03T18:20:00.498Z,31.77
2023-12-03T18:22:26.973Z,31.40
2023-12-03T18:24:53.513Z,30.02
2023-12-03T18:27:20.236Z,29.17
2023-12-03T18:29:46.607Z,26.20
2023-12-03T18:32:13.115Z,28.92
2023-12-03T18:34:41.383Z,27.85
2023-12-03T18:37:08.320Z,27.30
2023-12-03T18:39:35.249Z,28.10
2023-12-03T18:42:01.956Z,28.67
2023-12-03T18:44:29.660Z,26.35
2023-12-03T18:46:56.699Z,27.83
2023-12-03T18:49:23.167Z,26.83
2023-12-03T18:51:49.642Z,27.65
2023-12-03T18:54:16.027Z,26.48
2023-12-03T18:56:43.320Z,29.90
2023-12-03T18:59:11.285Z,29.23
2023-12-03T19:01:37.828Z,30.13
2023-12-03T19:04:04.335Z,27.00
2023-12-03T19:06:30.851Z,29.55
2023-12-03T19:08:57.636Z,31.00
2023-12-03T19:11:24.010Z,30.58
2023-12-03T19:13:51.561Z,31.95
2023-12-03T19:16:18.048Z,30.88
2023-12-03T19:18:44.793Z,29.67
2023-12-03T19:21:12.281Z,29.40
2023-12-03T19:23:38.779Z,29.90
2023-12-03T19:26:05.348Z,29.33
2023-12-03T19:28:31.746Z,29.67
2023-12-03T19:31:00.699Z,28.65
2023-12-03T19:33:27.286Z,28.95
2023-12-03T19:35:53.721Z,25.70
2023-12-03T19:38:20.157Z,25.85
2023-12-03T19:40:49.503Z,28.58
2023-12-03T19:43:16.064Z,24.33
2023-12-03T19:45:42.467Z,26.83
2023-12-03T19:48:08.904Z,26.40
2023-12-03T19:50:36.686Z,25.33
2023-12-03T19:53:04.761Z,26.70
2023-12-03T19:55:31.141Z,27.00
2023-12-03T19:57:57.660Z,26.10
2023-12-03T20:00:24.167Z,25.20
2023-12-03T20:02:50.555Z,26.45
2023-12-03T20:05:17.928Z,27.08
2023-12-03T20:07:44.530Z,28.75
2023-12-03T20:10:11.161Z,27.77
2023-12-03T20:12:37.640Z,28.30
2023-12-03T20:15:04.829Z,29.85
2023-12-03T20:17:33.272Z,27.42
2023-12-03T20:20:00.354Z,27.27
2023-12-03T20:22:27.007Z,30.10
2023-12-03T20:24:54.073Z,29.17
2023-12-03T20:27:20.784Z,25.90
2023-12-03T20:29:47.221Z,27.90
2023-12-03T20:32:13.756Z,26.73
2023-12-03T20:34:40.198Z,28.10
2023-12-03T20:37:08.569Z,26.75
2023-12-03T20:39:35.293Z,29.48
2023-12-03T20:42:03.213Z,27.95
2023-12-03T20:44:29.741Z,27.73
2023-12-03T20:46:56.341Z,27.27
2023-12-03T20:49:22.944Z,30.33
2023-12-03T20:51:49.469Z,28.05
2023-12-03T20:54:15.961Z,28.42
2023-12-03T20:56:42.308Z,29.77
2023-12-03T20:59:08.690Z,29.52
2023-12-03T21:01:35.108Z,26.60
2023-12-03T21:04:01.724Z,27.98
2023-12-03T21:06:28.201Z,26.35
2023-12-03T21:08:56.080Z,25.25
2023-12-03T21:11:22.571Z,25.20
2023-12-03T21:13:49.026Z,26.75
2023-12-03T21:16:15.537Z,25.13
2023-12-03T21:18:42.039Z,25.85
2023-12-03T21:21:08.568Z,27.58
2023-12-03T21:23:34.998Z,27.42
2023-12-03T21:26:01.408Z,25.73
2023-12-03T21:28:27.781Z,25.80
2023-12-03T21:30:54.211Z,24.27
2023-12-03T21:33:20.827Z,27.70
2023-12-03T21:35:47.402Z,24.13
2023-12-03T21:38:14.769Z,25.70
2023-12-03T21:40:43.484Z,24.90
2023-12-03T21:43:10.340Z,24.13
2023-12-03T21:45:36.861Z,23.08
2023-12-03T21:48:03.633Z,22.50
2023-12-03T21:50:30.107Z,22.77
2023-12-03T21:52:57.184Z,22.95
2023-12-03T21:55:23.572Z,22.23
2023-12-03T21:57:50.089Z,22.70
2023-12-03T22:00:18.690Z,23.63
2023-12-03T22:02:45.122Z,23.42
2023-12-03T22:05:12.044Z,23.98
2023-12-03T22:07:38.666Z,24.35
2023-12-03T22:10:05.396Z,23.27
2023-12-03T22:12:32.042Z,24.00
2023-12-03T22:14:58.553Z,24.20
2023-12-03T22:17:25.000Z,24.00
2023-12-03T22:19:51.477Z,22.88
2023-12-03T22:22:17.986Z,22.45
2023-12-03T22:24:44.452Z,22.60
2023-12-03T22:27:10.869Z,22.58
2023-12-03T22:29:47.622Z,23.30
2023-12-03T22:32:17.069Z,23.80
2023-12-03T22:34:43.573Z,22.88
2023-12-03T22:37:10.002Z,22.20
2023-12-03T22:39:36.458Z,20.45
2023-12-03T22:42:03.118Z,19.92
2023-12-03T22:44:30.694Z,21.17
2023-12-03T22:46:57.940Z,20.48
2023-12-03T22:49:24.498Z,19.25
2023-12-03T22:51:51.115Z,19.08
2023-12-03T22:54:17.524Z,18.63
2023-12-03T22:56:43.951Z,19.13
2023-12-03T22:59:10.398Z,18.65
2023-12-03T23:01:42.216Z,18.70
2023-12-03T23:04:12.951Z,17.90
2023-12-03T23:06:39.559Z,17.30
2023-12-03T23:09:05.976Z,18.42
2023-12-03T23:11:32.393Z,17.83
2023-12-03T23:13:58.873Z,17.17
2023-12-03T23:16:25.463Z,18.13
2023-12-03T23:18:52.001Z,17.52
2023-12-03T23:21:18.480Z,17.95
2023-12-03T23:23:44.890Z,17.40
2023-12-03T23:26:11.512Z,17.02
2023-12-03T23:28:37.949Z,16.63
2023-12-03T23:31:06.816Z,16.95
2023-12-03T23:33:33.617Z,17.42
2023-12-03T23:36:00.879Z,16.95
2023-12-03T23:38:27.281Z,17.70
2023-12-03T23:40:54.045Z,16.95
2023-12-03T23:43:20.447Z,16.35
2023-12-03T23:45:46.953Z,15.70
2023-12-03T23:48:13.426Z,16.83
2023-12-03T23:50:40.198Z,15.88
2023-12-03T23:53:06.663Z,16.05
2023-12-03T23:55:33.143Z,14.88
2023-12-03T23:57:59.762Z,16.30
